Time;durP1;ratioP1;P1;durP2;ratioP2;P2;SDS_P1;SDS_P2;PMS_P1;PMS_P2;Temp;Humidity;BMP_temperature;BMP_pressure;BME280_temperature;BME280_humidity;BME280_pressure;Samples;Min_cycle;Max_cycle;Signal;HPM_P1;HPM_P2
2022/07/08 00:00:53;;;;;;;5.47;1.65;;;14.50;99.90;;;;;;5011084;28;20428;-29
2022/07/08 00:03:19;;;;;;;7.78;2.00;;;14.50;99.90;;;;;;5010828;28;20057;-28
2022/07/08 00:05:45;;;;;;;7.28;2.00;;;14.50;99.90;;;;;;5011204;28;20045;-28
2022/07/08 00:08:10;;;;;;;9.30;1.95;;;14.50;99.90;;;;;;5010649;28;20126;-29
2022/07/08 00:10:36;;;;;;;4.28;1.90;;;14.50;99.90;;;;;;5010988;28;20092;-28
2022/07/08 00:13:03;;;;;;;4.45;1.70;;;14.50;99.90;;;;;;5010667;28;20467;-28
2022/07/08 00:15:29;;;;;;;5.60;1.70;;;14.50;99.90;;;;;;5009447;28;20087;-28
2022/07/08 00:17:56;;;;;;;8.95;2.13;;;14.50;99.90;;;;;;5012853;28;20045;-29
2022/07/08 00:20:22;;;;;;;5.68;1.77;;;14.50;99.90;;;;;;5014887;28;20725;-28
2022/07/08 00:22:50;;;;;;;8.45;2.35;;;14.50;99.90;;;;;;5014985;28;20065;-28
2022/07/08 00:25:19;;;;;;;5.15;1.95;;;14.40;99.90;;;;;;5014915;28;20412;-27
2022/07/08 00:27:44;;;;;;;13.32;2.92;;;14.40;99.90;;;;;;5014971;28;20168;-28
2022/07/08 00:30:12;;;;;;;5.63;1.80;;;14.40;99.90;;;;;;5014721;28;20074;-27
2022/07/08 00:32:40;;;;;;;5.22;1.90;;;14.40;99.90;;;;;;5014480;28;20042;-28
2022/07/08 00:35:06;;;;;;;5.93;1.88;;;14.40;99.90;;;;;;5012496;28;20041;-32
2022/07/08 00:37:32;;;;;;;6.30;2.00;;;14.40;99.90;;;;;;5011939;28;20464;-29
2022/07/08 00:39:58;;;;;;;7.43;2.33;;;14.40;99.90;;;;;;5007117;28;20038;-33
2022/07/08 00:42:24;;;;;;;8.02;2.05;;;14.30;99.90;;;;;;5007896;28;20104;-31
2022/07/08 00:44:49;;;;;;;7.43;2.22;;;14.30;99.90;;;;;;5010371;28;20060;-32
2022/07/08 00:47:15;;;;;;;5.80;2.08;;;14.20;99.90;;;;;;5012634;28;20484;-31
2022/07/08 00:49:41;;;;;;;9.13;2.20;;;14.20;99.90;;;;;;5004072;28;20532;-31
2022/07/08 00:52:08;;;;;;;9.10;2.30;;;14.10;99.90;;;;;;5011922;28;20034;-29
2022/07/08 00:54:37;;;;;;;5.43;2.00;;;14.10;99.90;;;;;;5020349;28;20481;-26
2022/07/08 00:57:03;;;;;;;5.43;1.83;;;14.00;99.90;;;;;;5013717;28;20040;-26
2022/07/08 00:59:29;;;;;;;7.43;1.83;;;14.00;99.90;;;;;;5014139;28;20452;-27
2022/07/08 01:01:55;;;;;;;8.07;2.47;;;14.00;99.90;;;;;;5013366;28;20125;-33
2022/07/08 01:04:21;;;;;;;8.23;2.47;;;14.00;99.90;;;;;;5013331;28;20116;-30
2022/07/08 01:06:49;;;;;;;7.10;2.63;;;14.00;99.90;;;;;;5015691;28;20053;-30
2022/07/08 01:09:15;;;;;;;6.95;2.20;;;14.00;99.90;;;;;;5013031;28;20240;-31
2022/07/08 01:11:45;;;;;;;6.10;1.98;;;14.00;99.90;;;;;;5012924;28;20046;-28
2022/07/08 01:14:12;;;;;;;8.15;2.53;;;13.90;99.90;;;;;;5007971;28;20033;-31
2022/07/08 01:16:38;;;;;;;8.02;2.17;;;13.90;99.90;;;;;;5007629;28;20045;-30
2022/07/08 01:19:03;;;;;;;6.03;2.25;;;13.90;99.90;;;;;;5007390;28;20030;-32
2022/07/08 01:21:29;;;;;;;7.00;2.40;;;13.90;99.90;;;;;;5012115;28;20196;-31
2022/07/08 01:23:55;;;;;;;8.27;2.40;;;13.80;99.90;;;;;;5009293;28;20176;-27
2022/07/08 01:26:21;;;;;;;8.20;2.63;;;13.80;99.90;;;;;;5012932;28;20042;-28
2022/07/08 01:28:46;;;;;;;6.70;2.40;;;13.80;99.90;;;;;;5013593;28;20045;-29
2022/07/08 01:31:12;;;;;;;8.73;2.78;;;13.80;99.90;;;;;;5013309;28;20045;-28
2022/07/08 01:33:40;;;;;;;9.55;2.95;;;13.70;99.90;;;;;;5013588;28;20040;-28
2022/07/08 01:36:07;;;;;;;6.18;2.50;;;13.70;99.90;;;;;;5013057;28;20404;-26
2022/07/08 01:38:33;;;;;;;7.38;2.97;;;13.70;99.90;;;;;;4995537;28;20041;-28
2022/07/08 01:40:59;;;;;;;8.73;2.65;;;13.60;99.90;;;;;;5013241;28;20038;-26
2022/07/08 01:43:25;;;;;;;9.02;2.88;;;13.60;99.90;;;;;;5011257;28;20049;-26
2022/07/08 01:45:51;;;;;;;8.63;2.63;;;13.50;99.90;;;;;;5011718;28;20107;-26
2022/07/08 01:48:16;;;;;;;9.27;2.72;;;13.40;99.90;;;;;;5011253;28;20125;-26
2022/07/08 01:50:42;;;;;;;7.15;2.92;;;13.40;99.90;;;;;;5012870;28;20046;-27
2022/07/08 01:53:08;;;;;;;6.53;2.80;;;13.30;99.90;;;;;;5012579;28;20049;-26
2022/07/08 01:55:34;;;;;;;11.65;3.25;;;13.20;99.90;;;;;;5008925;28;20038;-26
2022/07/08 01:57:59;;;;;;;5.50;2.67;;;13.20;99.90;;;;;;5016626;28;20033;-26
2022/07/08 02:00:26;;;;;;;9.40;2.83;;;13.10;99.90;;;;;;5022002;28;20543;-26
2022/07/08 02:02:51;;;;;;;5.78;2.58;;;13.10;99.90;;;;;;5011566;28;20046;-26
2022/07/08 02:05:17;;;;;;;10.15;3.17;;;13.10;99.90;;;;;;5012315;28;20041;-26
2022/07/08 02:07:43;;;;;;;5.88;2.67;;;13.00;99.90;;;;;;5012725;28;20041;-27
2022/07/08 02:10:10;;;;;;;4.40;2.80;;;13.00;99.90;;;;;;5011110;28;20129;-26
2022/07/08 02:12:36;;;;;;;7.55;3.00;;;12.90;99.90;;;;;;5012538;28;20069;-28
2022/07/08 02:15:07;;;;;;;7.57;2.75;;;12.90;99.90;;;;;;5012609;28;20073;-26
2022/07/08 02:17:43;;;;;;;7.80;3.50;;;12.80;99.90;;;;;;5012655;28;20049;-26
2022/07/08 02:20:13;;;;;;;10.43;2.90;;;12.80;99.90;;;;;;5012350;28;20049;-30
2022/07/08 02:22:40;;;;;;;9.40;3.78;;;12.70;99.90;;;;;;5011470;28;20050;-27
2022/07/08 02:25:07;;;;;;;8.00;3.05;;;12.70;99.90;;;;;;4999024;28;20082;-31
2022/07/08 02:27:32;;;;;;;6.25;2.75;;;12.70;99.90;;;;;;5013711;28;20042;-29
2022/07/08 02:29:58;;;;;;;7.82;2.80;;;12.60;99.90;;;;;;5010566;28;20045;-30
2022/07/08 02:32:24;;;;;;;7.18;2.92;;;12.60;99.90;;;;;;5013251;28;20077;-32
2022/07/08 02:34:49;;;;;;;11.80;3.15;;;12.60;99.90;;;;;;5011040;28;20523;-30
2022/07/08 02:37:15;;;;;;;7.80;3.15;;;12.60;99.90;;;;;;5008095;28;20125;-31
2022/07/08 02:39:41;;;;;;;14.68;3.60;;;12.60;99.90;;;;;;5006777;28;20034;-31
2022/07/08 02:42:09;;;;;;;8.05;2.60;;;12.60;99.90;;;;;;5018256;28;20156;-31
2022/07/08 02:44:38;;;;;;;5.40;3.13;;;12.60;99.90;;;;;;4998846;28;20059;-33
2022/07/08 02:47:05;;;;;;;4.97;2.92;;;12.50;99.90;;;;;;5005705;28;20489;-33
2022/07/08 02:49:31;;;;;;;5.65;2.92;;;12.50;99.90;;;;;;5004891;28;20048;-30
2022/07/08 02:51:57;;;;;;;6.07;3.00;;;12.50;99.90;;;;;;4994083;28;20042;-31
2022/07/08 02:54:22;;;;;;;8.00;2.90;;;12.50;99.90;;;;;;5010294;28;20066;-31
2022/07/08 02:56:48;;;;;;;9.35;3.00;;;12.40;99.90;;;;;;5010287;28;20040;-30
2022/07/08 02:59:13;;;;;;;6.95;3.00;;;12.40;99.90;;;;;;5012710;28;20124;-32
2022/07/08 03:01:39;;;;;;;4.97;3.17;;;12.40;99.90;;;;;;5015866;28;20074;-31
2022/07/08 03:04:05;;;;;;;8.15;3.45;;;12.40;99.90;;;;;;5009281;28;20120;-30
2022/07/08 03:06:31;;;;;;;9.77;3.10;;;12.40;99.90;;;;;;5013071;28;20054;-31
2022/07/08 03:08:56;;;;;;;7.50;3.05;;;12.30;99.90;;;;;;5009583;28;20087;-31
2022/07/08 03:11:22;;;;;;;7.13;2.97;;;12.30;99.90;;;;;;5015234;28;20038;-30
2022/07/08 03:13:48;;;;;;;7.55;3.00;;;12.30;99.90;;;;;;5011088;28;20053;-30
2022/07/08 03:16:14;;;;;;;7.65;3.20;;;12.30;99.90;;;;;;5011071;28;20041;-31
2022/07/08 03:18:43;;;;;;;7.18;2.90;;;12.30;99.90;;;;;;5015229;28;20049;-31
2022/07/08 03:21:11;;;;;;;8.15;3.42;;;12.30;99.90;;;;;;5008445;28;20124;-31
2022/07/08 03:23:37;;;;;;;8.77;3.20;;;12.30;99.90;;;;;;5010500;28;20046;-31
2022/07/08 03:26:03;;;;;;;9.63;3.65;;;12.30;99.90;;;;;;5008871;28;20171;-31
2022/07/08 03:28:29;;;;;;;9.73;3.92;;;12.20;99.90;;;;;;5010260;28;20046;-32
2022/07/08 03:30:55;;;;;;;7.93;3.30;;;12.20;99.90;;;;;;5008971;28;20049;-31
2022/07/08 03:33:20;;;;;;;5.20;2.75;;;12.20;99.90;;;;;;5017087;28;20038;-31
2022/07/08 03:35:46;;;;;;;6.60;3.15;;;12.10;99.90;;;;;;5013415;28;20030;-31
2022/07/08 03:38:12;;;;;;;7.43;3.05;;;12.10;99.90;;;;;;5013643;28;20512;-32
2022/07/08 03:43:21;;;;;;;;;;;12.10;99.90;;;;;;5005669;28;20045;-32
2022/07/08 03:45:47;;;;;;;8.98;3.45;;;12.10;99.90;;;;;;5010073;28;19917;-31
2022/07/08 03:48:13;;;;;;;8.95;3.20;;;12.00;99.90;;;;;;5008101;28;20104;-34
2022/07/08 03:50:39;;;;;;;6.63;3.63;;;12.00;99.90;;;;;;5009863;28;20485;-31
2022/07/08 03:53:04;;;;;;;10.50;3.78;;;12.00;99.90;;;;;;4995822;28;20504;-31
2022/07/08 03:55:33;;;;;;;8.60;3.38;;;12.00;99.90;;;;;;5010634;28;20029;-30
2022/07/08 03:57:59;;;;;;;6.65;3.30;;;12.00;99.90;;;;;;5015726;28;20034;-30
2022/07/08 04:00:25;;;;;;;7.55;2.75;;;12.00;99.90;;;;;;5013835;28;20382;-31
2022/07/08 04:02:50;;;;;;;8.00;3.88;;;12.00;99.90;;;;;;5010176;28;20120;-30
2022/07/08 04:05:16;;;;;;;8.05;3.08;;;12.00;99.90;;;;;;5013495;28;20586;-31
2022/07/08 04:07:42;;;;;;;10.60;4.00;;;12.00;99.90;;;;;;5013317;28;20261;-32
2022/07/08 04:10:08;;;;;;;7.13;2.90;;;12.10;99.90;;;;;;5013237;28;20421;-31
2022/07/08 04:12:34;;;;;;;6.32;2.95;;;12.10;99.90;;;;;;5012337;28;20117;-31
2022/07/08 04:15:00;;;;;;;8.20;3.15;;;12.10;99.90;;;;;;5008597;28;20137;-31
2022/07/08 04:17:26;;;;;;;8.50;3.58;;;12.20;99.90;;;;;;5015700;28;20095;-30
2022/07/08 04:19:51;;;;;;;6.25;2.50;;;12.20;99.90;;;;;;5015977;28;20400;-32
2022/07/08 04:22:26;;;;;;;7.32;3.38;;;12.20;99.90;;;;;;5016807;28;20049;-31
2022/07/08 04:24:52;;;;;;;7.55;2.90;;;12.30;99.90;;;;;;5006732;28;20033;-31
2022/07/08 04:27:18;;;;;;;6.10;2.90;;;12.30;99.90;;;;;;5003671;28;20386;-31
2022/07/08 04:29:44;;;;;;;8.15;2.90;;;12.40;99.90;;;;;;5010959;28;20038;-32
2022/07/08 04:32:09;;;;;;;5.45;3.03;;;12.40;99.90;;;;;;5010067;28;20046;-30
2022/07/08 04:34:35;;;;;;;8.18;2.70;;;12.50;99.90;;;;;;5012908;28;20037;-31
2022/07/08 04:37:00;;;;;;;7.63;3.20;;;12.60;99.90;;;;;;5004201;28;20247;-30
2022/07/08 04:39:26;;;;;;;6.00;3.00;;;12.60;99.90;;;;;;5001253;28;20044;-31
2022/07/08 04:41:52;;;;;;;7.72;3.00;;;12.70;99.90;;;;;;5008976;28;20041;-32
2022/07/08 04:44:18;;;;;;;9.38;3.13;;;12.80;99.90;;;;;;5011252;28;20036;-36
2022/07/08 04:46:43;;;;;;;8.95;3.63;;;12.90;99.90;;;;;;5007198;28;20050;-34
2022/07/08 04:49:10;;;;;;;8.48;3.72;;;12.90;99.90;;;;;;5020305;28;20042;-32
2022/07/08 04:51:36;;;;;;;6.43;3.00;;;12.90;99.90;;;;;;4995092;28;20038;-32
2022/07/08 04:54:02;;;;;;;7.15;3.03;;;13.00;99.90;;;;;;5013602;28;20377;-32
2022/07/08 04:56:27;;;;;;;6.65;3.17;;;13.10;99.90;;;;;;5015225;28;20124;-34
2022/07/08 04:58:53;;;;;;;8.82;3.33;;;13.10;99.90;;;;;;5016853;28;20041;-33
2022/07/08 05:01:19;;;;;;;7.95;3.30;;;13.20;99.90;;;;;;5010509;28;20033;-32
2022/07/08 05:03:45;;;;;;;10.05;3.40;;;13.20;99.90;;;;;;5006708;28;20035;-33
2022/07/08 05:06:10;;;;;;;10.73;3.25;;;13.30;99.90;;;;;;5003848;28;20596;-32
2022/07/08 05:08:36;;;;;;;8.38;3.22;;;13.30;99.90;;;;;;5010015;28;20033;-33
2022/07/08 05:11:02;;;;;;;11.23;3.33;;;13.30;99.90;;;;;;5003456;28;20101;-33
2022/07/08 05:13:28;;;;;;;8.95;3.03;;;13.30;99.90;;;;;;5001972;28;20116;-34
2022/07/08 05:15:53;;;;;;;8.88;3.13;;;13.40;99.90;;;;;;5002064;28;20069;-33
2022/07/08 05:18:20;;;;;;;9.88;3.78;;;13.40;99.90;;;;;;5010169;28;20504;-31
2022/07/08 05:20:45;;;;;;;7.72;3.30;;;13.50;99.90;;;;;;5005006;28;20042;-32
2022/07/08 05:23:11;;;;;;;6.43;3.47;;;13.50;99.90;;;;;;5007978;28;20108;-32
2022/07/08 05:25:37;;;;;;;9.38;3.45;;;13.60;99.90;;;;;;5008733;28;20096;-31
2022/07/08 05:28:02;;;;;;;8.20;3.50;;;13.60;99.90;;;;;;5008169;28;20030;-31
2022/07/08 05:30:28;;;;;;;6.93;3.20;;;13.70;99.90;;;;;;5001669;28;20145;-32
2022/07/08 05:32:54;;;;;;;9.32;3.30;;;13.90;99.90;;;;;;5004814;28;20034;-31
2022/07/08 05:35:19;;;;;;;7.38;2.83;;;14.00;99.90;;;;;;5005572;28;20052;-35
2022/07/08 05:37:45;;;;;;;6.70;3.10;;;14.30;99.90;;;;;;5007968;28;20045;-33
2022/07/08 05:40:14;;;;;;;8.07;3.33;;;14.50;99.90;;;;;;5011703;28;20072;-33
2022/07/08 05:42:40;;;;;;;11.35;3.45;;;14.60;99.90;;;;;;5011155;28;20046;-33
2022/07/08 05:45:07;;;;;;;7.90;3.45;;;14.70;99.90;;;;;;5006138;28;21311;-32
2022/07/08 05:47:33;;;;;;;9.57;2.95;;;14.90;99.90;;;;;;5012145;28;20053;-32
2022/07/08 05:49:58;;;;;;;8.30;2.70;;;14.90;99.90;;;;;;5000523;28;20406;-33
2022/07/08 05:52:24;;;;;;;9.93;3.25;;;15.10;99.90;;;;;;5006665;28;20445;-32
2022/07/08 05:54:50;;;;;;;7.25;2.58;;;15.10;99.90;;;;;;5011307;28;20038;-34
2022/07/08 05:57:16;;;;;;;8.70;3.17;;;15.20;99.90;;;;;;5018867;28;20508;-34
2022/07/08 05:59:43;;;;;;;11.13;3.33;;;15.30;99.90;;;;;;5016335;28;20087;-33
2022/07/08 06:02:09;;;;;;;8.52;3.10;;;15.40;99.90;;;;;;5013270;28;20049;-34
2022/07/08 06:04:34;;;;;;;11.55;2.75;;;15.50;99.90;;;;;;5005271;28;20037;-34
2022/07/08 06:07:00;;;;;;;7.80;2.78;;;15.60;99.90;;;;;;5006454;28;20428;-33
2022/07/08 06:09:26;;;;;;;8.15;2.55;;;15.60;99.90;;;;;;5010832;28;20501;-34
2022/07/08 06:11:52;;;;;;;7.88;2.58;;;15.70;99.90;;;;;;5004000;28;20061;-32
2022/07/08 06:14:18;;;;;;;6.35;2.55;;;15.70;99.90;;;;;;5005422;28;20038;-36
2022/07/08 06:16:47;;;;;;;6.78;2.63;;;15.80;99.90;;;;;;5009013;28;20065;-34
2022/07/08 06:19:14;;;;;;;11.77;2.05;;;15.80;99.90;;;;;;5024084;28;20137;-32
2022/07/08 06:21:43;;;;;;;6.30;2.60;;;15.80;99.90;;;;;;5012357;28;20069;-31
2022/07/08 06:24:09;;;;;;;9.75;2.70;;;15.90;99.90;;;;;;5002385;28;20046;-35
2022/07/08 06:26:36;;;;;;;5.72;2.42;;;16.00;99.90;;;;;;5010773;28;20417;-33
2022/07/08 06:29:03;;;;;;;7.65;2.35;;;16.00;99.90;;;;;;5002254;28;20034;-36
2022/07/08 06:31:28;;;;;;;8.02;2.63;;;16.10;99.90;;;;;;5010819;28;20038;-36
2022/07/08 06:33:58;;;;;;;9.13;2.67;;;16.20;99.90;;;;;;5003574;28;20376;-33
2022/07/08 06:36:27;;;;;;;6.28;2.45;;;16.30;99.90;;;;;;5009019;28;20508;-31
2022/07/08 06:38:53;;;;;;;7.30;2.45;;;16.40;99.90;;;;;;5012972;28;20099;-34
2022/07/08 06:41:19;;;;;;;6.50;2.70;;;16.40;99.90;;;;;;5011065;28;20540;-32
2022/07/08 06:43:46;;;;;;;7.47;2.40;;;16.50;99.90;;;;;;5007221;28;20142;-32
2022/07/08 06:46:12;;;;;;;11.43;2.70;;;16.60;99.90;;;;;;4991687;28;20041;-37
2022/07/08 06:48:38;;;;;;;8.73;3.05;;;16.80;99.90;;;;;;5008947;28;20645;-35
2022/07/08 06:51:04;;;;;;;8.52;2.38;;;16.90;99.90;;;;;;5012332;28;20186;-34
2022/07/08 06:56:17;;;;;;;9.07;2.75;;;17.20;99.90;;;;;;5017704;28;20487;-35
2022/07/08 06:58:44;;;;;;;12.98;3.08;;;17.30;99.90;;;;;;5013372;28;20117;-36
2022/07/08 07:01:11;;;;;;;8.05;1.90;;;17.40;99.90;;;;;;5018766;28;20073;-33
2022/07/08 07:03:38;;;;;;;4.32;1.98;;;17.50;99.90;;;;;;5010223;28;20500;-37
2022/07/08 07:06:05;;;;;;;8.35;2.45;;;17.50;99.90;;;;;;4998609;28;20121;-31
2022/07/08 07:08:31;;;;;;;10.85;2.58;;;17.60;99.90;;;;;;4995860;28;20121;-33
2022/07/08 07:10:57;;;;;;;7.57;2.38;;;17.70;99.90;;;;;;4999931;28;20132;-36
2022/07/08 07:13:25;;;;;;;7.78;2.40;;;17.80;99.90;;;;;;4990785;28;20112;-34
2022/07/08 07:15:50;;;;;;;8.52;2.55;;;17.70;99.90;;;;;;5006145;28;20481;-36
2022/07/08 07:18:16;;;;;;;8.48;2.47;;;17.70;99.90;;;;;;5009861;28;20405;-33
2022/07/08 07:20:42;;;;;;;6.22;1.98;;;17.80;99.90;;;;;;5001115;28;20401;-30
2022/07/08 07:23:08;;;;;;;6.55;2.00;;;17.90;99.90;;;;;;4999338;28;20041;-31
2022/07/08 07:25:35;;;;;;;5.00;2.00;;;17.80;99.90;;;;;;4996590;28;20469;-33
2022/07/08 07:28:00;;;;;;;8.52;2.40;;;17.80;99.90;;;;;;5007343;28;20033;-32
2022/07/08 07:30:26;;;;;;;4.75;1.70;;;17.80;99.90;;;;;;5005223;28;20042;-32
2022/07/08 07:32:55;;;;;;;12.20;2.63;;;17.90;99.90;;;;;;4997428;28;20382;-36
2022/07/08 07:35:21;;;;;;;6.57;2.42;;;17.90;99.90;;;;;;4997437;28;20519;-33
2022/07/08 07:37:47;;;;;;;8.07;2.15;;;18.00;99.90;;;;;;5001193;28;20046;-31
2022/07/08 07:40:12;;;;;;;4.72;2.22;;;18.10;99.90;;;;;;5001738;28;20092;-31
2022/07/08 07:42:39;;;;;;;9.40;2.70;;;18.20;99.90;;;;;;4998890;28;20217;-36
2022/07/08 07:45:06;;;;;;;10.13;3.20;;;18.20;99.90;;;;;;4999265;28;20035;-34
2022/07/08 07:47:34;;;;;;;6.53;1.90;;;18.30;99.90;;;;;;5011842;23;20046;-88
2022/07/08 07:50:00;;;;;;;8.45;2.22;;;18.20;99.90;;;;;;5030655;28;20063;-88
2022/07/08 07:52:26;;;;;;;5.57;2.00;;;18.10;99.90;;;;;;4999694;28;20061;-88
2022/07/08 07:54:57;;;;;;;7.60;2.03;;;18.10;99.90;;;;;;5027288;28;20049;-89
2022/07/08 07:57:23;;;;;;;7.28;2.30;;;18.20;99.90;;;;;;5016876;28;20041;-89
2022/07/08 07:59:49;;;;;;;6.50;2.28;;;18.30;99.90;;;;;;5018494;28;20049;-89
2022/07/08 08:02:14;;;;;;;6.35;2.10;;;18.40;99.90;;;;;;5019716;28;20428;-89
2022/07/08 08:04:41;;;;;;;8.98;2.63;;;18.50;99.90;;;;;;5025305;28;20057;-89
2022/07/08 08:07:07;;;;;;;4.55;1.92;;;18.80;99.90;;;;;;5024807;28;20417;-88
2022/07/08 08:09:33;;;;;;;4.85;2.15;;;18.90;99.90;;;;;;5026044;28;20049;-89
2022/07/08 08:11:58;;;;;;;7.03;2.55;;;18.80;99.90;;;;;;5010234;28;20033;-90
2022/07/08 08:14:24;;;;;;;9.30;2.47;;;18.80;99.90;;;;;;5021999;28;20042;-88
2022/07/08 08:16:50;;;;;;;5.43;2.10;;;18.80;99.90;;;;;;5018995;28;20037;-91
2022/07/08 08:19:18;;;;;;;6.28;2.05;;;18.70;99.90;;;;;;5017224;28;20033;-86
2022/07/08 08:21:44;;;;;;;5.80;2.10;;;18.80;99.90;;;;;;5021060;28;20041;-87
2022/07/08 08:24:10;;;;;;;4.43;2.42;;;18.90;99.90;;;;;;5019056;28;20075;-89
2022/07/08 08:26:35;;;;;;;8.10;2.20;;;19.00;99.90;;;;;;5025971;28;20037;-89
2022/07/08 08:29:04;;;;;;;7.57;2.20;;;18.80;99.90;;;;;;5020511;28;20037;-89
2022/07/08 08:31:33;;;;;;;7.15;2.38;;;18.70;99.90;;;;;;5010341;28;20121;-88
2022/07/08 08:34:01;;;;;;;6.43;2.10;;;18.80;99.90;;;;;;5023529;28;20038;-91
2022/07/08 08:36:34;;;;;;;5.35;1.70;;;18.70;99.90;;;;;;5019489;28;20100;-90
2022/07/08 08:39:03;;;;;;;;;;;18.70;99.90;;;;;;5013393;28;20164;-88
2022/07/08 08:41:33;;;;;;;10.80;2.40;;;18.80;99.90;;;;;;5026521;28;19917;-88
2022/07/08 08:44:01;;;;;;;7.43;2.30;;;18.90;99.90;;;;;;5015218;28;20042;-87
2022/07/08 08:46:31;;;;;;;6.00;2.35;;;18.80;99.90;;;;;;5013288;28;20046;-89
2022/07/08 08:48:57;;;;;;;6.68;2.10;;;18.90;99.90;;;;;;5025718;28;20050;-88
2022/07/08 08:51:23;;;;;;;7.25;2.30;;;19.10;99.90;;;;;;5030749;28;20037;-87
2022/07/08 08:53:56;;;;;;;6.65;2.33;;;19.30;99.90;;;;;;5025861;28;20068;-88
2022/07/08 08:56:26;;;;;;;9.25;2.47;;;19.60;99.90;;;;;;5033312;28;20480;-88
2022/07/08 08:59:00;;;;;;;7.45;2.58;;;19.70;99.90;;;;;;5035180;28;20668;-88
2022/07/08 09:01:28;;;;;;;5.13;2.17;;;19.90;99.90;;;;;;5028091;28;20045;-87
2022/07/08 09:03:54;;;;;;;4.85;1.73;;;20.20;99.90;;;;;;5024477;28;20055;-88
2022/07/08 09:06:19;;;;;;;6.57;2.53;;;20.40;99.90;;;;;;5013865;28;20116;-88
2022/07/08 09:08:45;;;;;;;4.07;1.90;;;20.70;99.90;;;;;;5014716;28;20041;-88
2022/07/08 09:11:17;;;;;;;7.15;2.58;;;20.90;99.90;;;;;;5033292;28;20073;-88
2022/07/08 09:13:42;;;;;;;5.88;2.25;;;21.00;99.90;;;;;;5031248;28;20037;-79
2022/07/08 09:16:08;;;;;;;6.82;2.45;;;21.20;99.90;;;;;;5034580;28;20045;-84
2022/07/08 09:18:36;;;;;;;6.20;2.30;;;21.50;99.90;;;;;;5032837;28;20065;-82
2022/07/08 09:21:03;;;;;;;4.75;2.10;;;21.70;99.90;;;;;;5037054;28;20524;-82
2022/07/08 09:23:33;;;;;;;8.10;2.25;;;21.90;99.90;;;;;;5030665;28;20049;-82
2022/07/08 09:26:01;;;;;;;7.88;2.40;;;22.00;99.90;;;;;;5032414;28;20100;-87
2022/07/08 09:28:33;;;;;;;5.57;2.10;;;21.90;99.90;;;;;;5029674;28;20128;-87
2022/07/08 09:31:02;;;;;;;6.70;2.40;;;21.70;99.90;;;;;;5012791;28;20088;-86
2022/07/08 09:33:28;;;;;;;6.05;2.40;;;21.80;99.90;;;;;;5030770;28;20414;-86
2022/07/08 09:36:00;;;;;;;4.88;1.95;;;21.60;99.90;;;;;;5024940;28;20042;-87
2022/07/08 09:38:34;;;;;;;9.25;3.28;;;21.40;99.90;;;;;;5032576;28;20406;-86
2022/07/08 09:41:04;;;;;;;5.63;2.13;;;21.20;99.90;;;;;;5030199;28;20415;-86
2022/07/08 09:43:32;;;;;;;10.00;2.45;;;21.10;99.90;;;;;;5028130;28;20104;-85
2022/07/08 09:46:06;;;;;;;5.32;2.28;;;20.90;99.90;;;;;;5025697;28;20042;-86
2022/07/08 09:48:33;;;;;;;6.85;2.33;;;20.90;99.90;;;;;;5017383;28;20041;-88
2022/07/08 09:51:07;;;;;;;7.53;2.38;;;20.80;99.90;;;;;;5031297;28;20038;-86
2022/07/08 09:53:34;;;;;;;5.25;2.30;;;20.90;99.90;;;;;;5012421;28;20041;-86
2022/07/08 09:56:00;;;;;;;6.40;2.67;;;20.90;99.90;;;;;;5024872;28;20521;-85
2022/07/08 09:58:28;;;;;;;7.90;2.78;;;21.00;99.90;;;;;;5027946;28;20042;-85
2022/07/08 10:00:56;;;;;;;5.60;2.38;;;21.10;99.90;;;;;;5028544;28;20081;-86
2022/07/08 10:03:24;;;;;;;5.28;2.58;;;21.20;99.90;;;;;;5011372;28;20091;-87
2022/07/08 10:05:50;;;;;;;7.43;2.50;;;21.30;99.90;;;;;;5033772;28;20033;-87
2022/07/08 10:08:17;;;;;;;5.20;2.30;;;21.40;99.90;;;;;;5026609;28;20056;-87
2022/07/08 10:10:45;;;;;;;9.70;2.70;;;21.50;99.90;;;;;;5032347;28;20045;-86
2022/07/08 10:13:11;;;;;;;7.05;2.70;;;21.40;99.90;;;;;;5025981;28;20091;-86
2022/07/08 10:15:38;;;;;;;4.63;2.42;;;21.50;99.90;;;;;;5010968;28;20037;-86
2022/07/08 10:18:35;;;;;;;6.72;2.47;;;21.40;99.90;;;;;;5029844;28;20117;-85
2022/07/08 10:21:03;;;;;;;8.20;3.38;;;21.30;99.90;;;;;;5033235;28;20077;-85
2022/07/08 10:23:37;;;;;;;9.05;3.05;;;21.00;99.90;;;;;;5025910;28;20076;-86
2022/07/08 10:26:04;;;;;;;6.20;2.53;;;20.90;99.90;;;;;;5031766;28;20041;-87
2022/07/08 10:28:35;;;;;;;5.90;2.58;;;20.70;99.90;;;;;;5027462;28;20034;-86
2022/07/08 10:31:01;;;;;;;6.30;2.88;;;20.70;99.90;;;;;;5028635;28;20487;-82
2022/07/08 10:33:29;;;;;;;6.38;3.13;;;20.70;99.90;;;;;;5033518;28;20167;-84
2022/07/08 10:36:08;;;;;;;6.75;2.60;;;20.80;99.90;;;;;;5031185;28;20056;-86
2022/07/08 10:38:41;;;;;;;6.05;3.10;;;20.80;99.90;;;;;;5024074;28;20038;-87
2022/07/08 10:41:09;;;;;;;5.72;2.10;;;20.90;99.90;;;;;;5014888;28;20045;-85
2022/07/08 10:43:35;;;;;;;6.20;2.40;;;20.80;99.90;;;;;;5027239;28;20049;-87
2022/07/08 10:46:12;;;;;;;6.70;2.35;;;21.00;99.90;;;;;;5021229;28;20042;-86
2022/07/08 10:48:41;;;;;;;6.13;2.33;;;21.20;99.90;;;;;;5025351;28;20077;-86
2022/07/08 10:51:37;;;;;;;5.80;2.58;;;21.40;99.90;;;;;;5007695;28;20136;-86
2022/07/08 10:54:05;;;;;;;7.88;2.10;;;21.80;99.90;;;;;;5025962;28;20034;-87
2022/07/08 10:57:07;;;;;;;5.45;2.20;;;22.10;99.90;;;;;;5008238;28;20573;-86
2022/07/08 10:59:37;;;;;;;5.40;2.08;;;22.20;99.90;;;;;;4971091;28;20072;-86
2022/07/08 11:02:03;;;;;;;4.82;2.55;;;22.20;99.90;;;;;;5026428;28;20424;-86
2022/07/08 11:04:35;;;;;;;3.20;2.10;;;22.00;99.90;;;;;;5007042;28;20049;-87
2022/07/08 11:07:28;;;;;;;5.30;1.95;;;21.90;99.90;;;;;;5022967;28;20121;-86
2022/07/08 11:09:57;;;;;;;5.27;2.50;;;21.90;99.90;;;;;;5028930;28;20042;-86
2022/07/08 11:12:35;;;;;;;6.63;2.40;;;21.90;99.90;;;;;;5021665;28;20045;-87
2022/07/08 11:15:03;;;;;;;5.43;2.33;;;21.90;99.90;;;;;;5002392;28;20476;-87
2022/07/08 11:17:32;;;;;;;4.22;1.88;;;21.90;99.90;;;;;;5021203;28;20050;-88
2022/07/08 11:20:01;;;;;;;4.97;2.22;;;22.10;99.90;;;;;;4999865;28;20037;-87
2022/07/08 11:22:27;;;;;;;5.93;2.20;;;22.20;99.90;;;;;;5022131;28;20127;-87
2022/07/08 11:24:55;;;;;;;6.55;2.42;;;22.40;99.90;;;;;;5038761;28;20045;-86
2022/07/08 11:27:33;;;;;;;7.90;2.47;;;22.40;99.90;;;;;;5036791;28;20065;-85
2022/07/08 11:29:59;;;;;;;4.72;2.10;;;22.40;99.90;;;;;;5010217;28;20489;-87
2022/07/08 11:32:26;;;;;;;4.47;2.20;;;22.30;99.90;;;;;;5002148;28;20046;-87
2022/07/08 11:34:54;;;;;;;8.57;2.50;;;22.50;99.90;;;;;;5011100;28;20042;-89
2022/07/08 11:37:25;;;;;;;6.13;2.20;;;22.40;99.90;;;;;;5024080;28;20053;-84
2022/07/08 11:39:52;;;;;;;8.30;3.00;;;22.70;99.90;;;;;;5008349;28;20073;-87
2022/07/08 11:42:20;;;;;;;4.93;2.42;;;22.80;99.90;;;;;;5010367;28;20077;-87
2022/07/08 11:44:46;;;;;;;4.80;2.33;;;23.00;99.90;;;;;;5007679;28;20088;-87
2022/07/08 11:47:20;;;;;;;6.43;2.80;;;23.20;99.90;;;;;;5028202;28;20514;-84
2022/07/08 11:49:48;;;;;;;4.25;2.13;;;23.20;99.90;;;;;;5007256;28;20567;-85
2022/07/08 11:52:18;;;;;;;7.53;2.35;;;23.30;99.90;;;;;;5010242;28;20033;-85
2022/07/08 11:54:46;;;;;;;4.28;2.30;;;23.30;99.90;;;;;;5010842;28;20628;-86
2022/07/08 11:57:13;;;;;;;5.22;2.55;;;23.30;99.90;;;;;;5012222;28;20061;-85
2022/07/08 11:59:39;;;;;;;4.05;2.35;;;23.40;99.90;;;;;;5027452;28;20405;-85
2022/07/08 12:02:05;;;;;;;4.00;2.28;;;23.60;99.90;;;;;;5028675;28;20044;-85
2022/07/08 12:04:31;;;;;;;6.18;2.50;;;23.60;99.90;;;;;;5019900;28;20045;-84
2022/07/08 12:07:01;;;;;;;5.40;2.60;;;23.70;99.90;;;;;;5005594;28;20041;-86
2022/07/08 12:09:29;;;;;;;4.10;2.53;;;23.70;99.90;;;;;;5030417;28;20037;-84
2022/07/08 12:11:56;;;;;;;6.32;3.10;;;23.60;99.90;;;;;;5008064;28;20038;-84
2022/07/08 12:14:25;;;;;;;7.15;2.60;;;23.80;99.90;;;;;;5034474;28;20047;-85
2022/07/08 12:16:56;;;;;;;6.03;2.78;;;23.90;99.90;;;;;;5033107;28;20115;-84
2022/07/08 12:19:40;;;;;;;4.55;2.53;;;24.10;99.90;;;;;;5031975;28;20162;-86
2022/07/08 12:22:07;;;;;;;8.35;3.05;;;24.00;99.90;;;;;;5034516;28;20410;-85
2022/07/08 12:24:34;;;;;;;6.28;2.47;;;24.10;99.90;;;;;;5033723;28;20135;-84
2022/07/08 12:27:04;;;;;;;6.18;2.75;;;24.50;99.90;;;;;;5015395;28;20092;-85
2022/07/08 12:29:39;;;;;;;5.80;2.30;;;24.60;99.90;;;;;;5034003;28;20581;-85
2022/07/08 12:32:06;;;;;;;10.48;3.00;;;24.70;99.90;;;;;;5024925;28;20117;-86
2022/07/08 12:34:35;;;;;;;6.03;2.58;;;24.60;99.90;;;;;;5036923;28;20072;-85
2022/07/08 12:37:14;;;;;;;4.75;2.33;;;24.50;99.90;;;;;;5040618;28;20029;-86
2022/07/08 12:39:44;;;;;;;3.25;1.92;;;25.00;99.90;;;;;;5034777;28;20387;-88
2022/07/08 12:42:34;;;;;;;5.43;2.30;;;24.90;99.90;;;;;;5040302;28;20501;-86
2022/07/08 12:44:59;;;;;;;5.07;2.58;;;24.70;99.60;;;;;;5009513;28;20045;-83
2022/07/08 12:47:25;;;;;;;5.13;2.30;;;25.00;99.90;;;;;;5021773;28;20641;-82
2022/07/08 12:49:55;;;;;;;4.90;2.53;;;25.10;99.90;;;;;;5026998;28;20045;-82
2022/07/08 12:52:21;;;;;;;8.57;2.70;;;24.90;95.80;;;;;;5026460;28;20457;-82